createdAt,value
2023-04-25T00:00:22.280Z,97035.53
2023-04-25T00:03:26.806Z,97034.22
2023-04-25T00:06:31.234Z,97038.16
2023-04-25T00:09:34.235Z,97039.00
2023-04-25T00:12:38.692Z,97044.72
2023-04-25T00:15:42.963Z,97039.31
2023-04-25T00:18:47.622Z,97040.78
2023-04-25T00:21:50.353Z,97037.84
2023-04-25T00:24:54.746Z,97041.13
2023-04-25T00:27:57.686Z,97043.94
2023-04-25T00:31:00.901Z,97040.19
2023-04-25T00:34:03.848Z,97039.69
2023-04-25T00:37:07.401Z,97033.31
2023-04-25T00:40:13.154Z,97045.28
2023-04-25T00:43:15.816Z,97055.28
2023-04-25T00:46:21.243Z,97047.56
2023-04-25T00:49:23.958Z,97054.47
2023-04-25T00:52:26.678Z,97057.56
2023-04-25T00:55:29.578Z,97057.59
2023-04-25T00:58:32.541Z,97053.81
2023-04-25T01:01:35.386Z,97044.16
2023-04-25T01:04:38.213Z,97042.50
2023-04-25T01:07:42.169Z,97045.97
2023-04-25T01:10:45.059Z,97052.34
2023-04-25T01:13:47.893Z,97055.63
2023-04-25T01:16:50.796Z,97056.94
2023-04-25T01:19:53.669Z,97052.66
2023-04-25T01:22:58.772Z,97057.09
2023-04-25T01:26:02.107Z,97062.81
2023-04-25T01:29:06.229Z,97056.09
2023-04-25T01:32:09.347Z,97062.34
2023-04-25T01:35:13.050Z,97058.25
2023-04-25T01:38:16.090Z,97059.09
2023-04-25T01:41:19.286Z,97053.34
2023-04-25T01:44:22.409Z,97055.31
2023-04-25T01:47:25.222Z,97062.38
2023-04-25T01:50:27.976Z,97061.03
2023-04-25T01:53:30.992Z,97053.69
2023-04-25T01:56:34.696Z,97054.66
2023-04-25T01:59:38.901Z,97057.75
2023-04-25T02:03:01.921Z,97063.34
2023-04-25T02:06:08.723Z,97065.94
2023-04-25T02:09:17.126Z,97048.94
2023-04-25T02:12:24.967Z,97062.53
2023-04-25T02:15:30.840Z,97050.38
2023-04-25T02:18:40.400Z,97058.59
2023-04-25T02:21:43.320Z,97051.06
2023-04-25T02:24:47.744Z,97057.28
2023-04-25T02:27:51.882Z,97057.59
2023-04-25T02:30:54.519Z,97055.78
2023-04-25T02:33:57.400Z,97062.84
2023-04-25T02:37:00.225Z,97056.63
2023-04-25T02:40:04.313Z,97063.47
2023-04-25T02:43:08.686Z,97062.81
2023-04-25T02:46:11.542Z,97057.94
2023-04-25T02:49:16.210Z,97058.09
2023-04-25T02:52:19.064Z,97049.75
2023-04-25T02:55:29.133Z,97048.09
2023-04-25T02:58:33.531Z,97052.38
2023-04-25T03:01:36.228Z,97045.81
2023-04-25T03:04:39.238Z,97052.38
2023-04-25T03:07:42.157Z,97058.22
2023-04-25T03:10:47.284Z,97054.00
2023-04-25T03:13:54.269Z,97054.50
2023-04-25T03:16:59.506Z,97052.50
2023-04-25T03:20:02.315Z,97047.91
2023-04-25T03:23:05.652Z,97043.50
2023-04-25T03:26:08.365Z,97042.03
2023-04-25T03:29:11.255Z,97047.88
2023-04-25T03:32:15.504Z,97048.19
2023-04-25T03:35:18.614Z,97044.88
2023-04-25T03:38:21.494Z,97046.56
2023-04-25T03:41:24.408Z,97052.59
2023-04-25T03:44:31.464Z,97050.97
2023-04-25T03:47:35.751Z,97052.72
2023-04-25T03:50:38.811Z,97045.22
2023-04-25T03:53:42.059Z,97047.81
2023-04-25T03:57:14.391Z,97051.56
2023-04-25T04:00:18.969Z,97045.84
2023-04-25T04:03:22.131Z,97051.09
2023-04-25T04:06:26.884Z,97050.25
2023-04-25T04:09:38.071Z,97062.69
2023-04-25T04:12:45.512Z,97058.75
2023-04-25T04:15:48.302Z,97066.91
2023-04-25T04:18:51.954Z,97065.31
2023-04-25T04:21:54.698Z,97056.34
2023-04-25T04:24:58.177Z,97057.66
2023-04-25T04:28:19.728Z,97056.34
2023-04-25T04:31:36.249Z,97069.56
2023-04-25T04:34:40.985Z,97070.72
2023-04-25T04:37:45.226Z,97066.25
2023-04-25T04:40:49.578Z,97065.44
2023-04-25T04:44:15.452Z,97069.06
2023-04-25T04:47:24.998Z,97068.56
2023-04-25T04:50:40.199Z,97076.09
2023-04-25T04:53:59.525Z,97074.09
2023-04-25T04:57:25.173Z,97077.06
2023-04-25T05:00:49.031Z,97071.84
2023-04-25T05:04:21.384Z,97079.19
2023-04-25T05:07:42.921Z,97073.47
2023-04-25T05:11:22.374Z,97067.25
2023-04-25T05:15:00.605Z,97075.28
2023-04-25T05:18:06.335Z,97083.81
2023-04-25T05:21:29.673Z,97080.69
2023-04-25T05:24:56.342Z,97085.91
2023-04-25T05:28:07.363Z,97085.81
2023-04-25T05:31:28.809Z,97086.94
2023-04-25T05:34:38.119Z,97080.75
2023-04-25T05:37:43.988Z,97083.00
2023-04-25T05:40:49.231Z,97094.44
2023-04-25T05:44:14.575Z,97089.16
2023-04-25T05:47:37.529Z,97100.06
2023-04-25T05:50:45.585Z,97091.59
2023-04-25T05:54:07.224Z,97088.34
2023-04-25T05:57:21.281Z,97091.44
2023-04-25T06:00:24.997Z,97097.00
2023-04-25T06:03:28.232Z,97100.44
2023-04-25T06:06:34.200Z,97096.00
2023-04-25T06:09:37.079Z,97101.78
2023-04-25T06:12:39.904Z,97097.88
2023-04-25T06:15:42.891Z,97106.91
2023-04-25T06:18:45.894Z,97106.25
2023-04-25T06:21:49.457Z,97099.06
2023-04-25T06:24:52.244Z,97102.00
2023-04-25T06:27:55.079Z,97104.72
2023-04-25T06:30:58.218Z,97107.56
2023-04-25T06:34:01.571Z,97114.44
2023-04-25T06:37:06.999Z,97116.75
2023-04-25T06:40:10.320Z,97113.78
2023-04-25T06:43:13.208Z,97116.56
2023-04-25T06:46:31.215Z,97125.72
2023-04-25T06:49:35.521Z,97119.22
2023-04-25T06:52:39.290Z,97130.56
2023-04-25T06:55:42.495Z,97133.44
2023-04-25T06:58:56.951Z,97122.03
2023-04-25T07:02:20.087Z,97121.03
2023-04-25T07:05:23.228Z,97129.09
2023-04-25T07:08:26.533Z,97134.78
2023-04-25T07:11:30.015Z,97122.97
2023-04-25T07:14:33.045Z,97127.94
2023-04-25T07:17:36.311Z,97133.31
2023-04-25T07:20:39.424Z,97136.44
2023-04-25T07:23:43.173Z,97132.03
2023-04-25T07:26:51.381Z,97128.94
2023-04-25T07:30:11.587Z,97127.16
2023-04-25T07:33:16.167Z,97120.78
2023-04-25T07:36:19.160Z,97124.38
2023-04-25T07:39:23.788Z,97120.13
2023-04-25T07:42:27.105Z,97113.91
2023-04-25T07:45:30.539Z,97118.31
2023-04-25T07:48:35.991Z,97114.34
2023-04-25T07:51:40.529Z,97113.38
2023-04-25T07:54:47.092Z,97112.41
2023-04-25T07:57:55.232Z,97124.38
2023-04-25T08:00:58.252Z,97110.94
2023-04-25T08:04:21.643Z,97107.84
2023-04-25T08:07:29.648Z,97107.16
2023-04-25T08:10:38.103Z,97107.50
2023-04-25T08:13:41.239Z,97109.31
2023-04-25T08:16:44.427Z,97113.09
2023-04-25T08:19:47.761Z,97106.69
2023-04-25T08:22:59.820Z,97106.22
2023-04-25T08:26:18.078Z,97111.44
2023-04-25T08:29:26.196Z,97106.84
2023-04-25T08:32:30.759Z,97113.84
2023-04-25T08:35:57.383Z,97102.97
2023-04-25T08:39:01.713Z,97109.34
2023-04-25T08:42:09.139Z,97099.50
2023-04-25T08:45:12.865Z,97102.53
2023-04-25T08:48:19.108Z,97106.47
2023-04-25T08:51:26.412Z,97112.72
2023-04-25T08:54:34.405Z,97120.66
2023-04-25T08:57:40.324Z,97121.09
2023-04-25T09:00:44.756Z,97127.28
2023-04-25T09:03:48.876Z,97123.34
2023-04-25T09:06:52.385Z,97114.53
2023-04-25T09:09:55.637Z,97123.34
2023-04-25T09:13:06.176Z,97126.81
2023-04-25T09:16:18.900Z,97132.13
2023-04-25T09:19:45.494Z,97125.19
2023-04-25T09:23:06.837Z,97134.19
2023-04-25T09:26:17.436Z,97139.34
2023-04-25T09:29:31.011Z,97135.41
2023-04-25T09:32:34.361Z,97141.03
2023-04-25T09:35:43.929Z,97142.31
2023-04-25T09:38:54.468Z,97134.69
2023-04-25T09:42:05.350Z,97129.44
2023-04-25T09:45:08.776Z,97114.78
2023-04-25T09:48:21.869Z,97120.44
2023-04-25T09:51:29.073Z,97115.09
2023-04-25T09:54:36.985Z,97120.47
2023-04-25T09:58:05.560Z,97121.97
2023-04-25T10:01:10.348Z,97123.31
2023-04-25T10:04:31.164Z,97124.19
2023-04-25T10:07:40.261Z,97120.38
2023-04-25T10:10:48.242Z,97120.78
2023-04-25T10:13:52.373Z,97122.94
2023-04-25T10:16:56.138Z,97125.84
2023-04-25T10:19:58.951Z,97119.56
2023-04-25T10:23:18.342Z,97117.44
2023-04-25T10:26:21.474Z,97114.31
2023-04-25T10:29:27.859Z,97109.66
2023-04-25T10:32:32.583Z,97109.34
2023-04-25T10:35:36.569Z,97101.25
2023-04-25T10:38:39.787Z,97105.78
2023-04-25T10:41:53.878Z,97102.50
2023-04-25T10:45:09.506Z,97097.44
2023-04-25T10:48:31.322Z,97100.66
2023-04-25T10:51:54.305Z,97100.13
2023-04-25T10:54:58.989Z,97096.34
2023-04-25T10:58:02.541Z,97100.59
2023-04-25T11:01:05.340Z,97095.09
2023-04-25T11:04:08.584Z,97088.38
2023-04-25T11:07:15.914Z,97090.66
2023-04-25T11:10:21.996Z,97092.81
2023-04-25T11:13:32.383Z,97095.41
2023-04-25T11:16:35.256Z,97098.47
2023-04-25T11:19:38.209Z,97093.09
2023-04-25T11:22:44.051Z,97082.63
2023-04-25T11:25:46.785Z,97095.25
2023-04-25T11:28:54.970Z,97088.28
2023-04-25T11:32:02.642Z,97078.69
2023-04-25T11:35:07.421Z,97077.63
2023-04-25T11:38:13.190Z,97076.31
2023-04-25T11:41:18.323Z,97091.91
2023-04-25T11:44:21.326Z,97088.09
2023-04-25T11:47:32.682Z,97081.78
2023-04-25T11:50:35.592Z,97082.47
2023-04-25T11:53:42.608Z,97076.59
2023-04-25T11:56:46.175Z,97093.50
2023-04-25T11:59:48.871Z,97088.16
2023-04-25T12:02:56.552Z,97087.72
2023-04-25T12:06:05.583Z,97085.34
2023-04-25T12:09:14.729Z,97070.91
2023-04-25T12:12:17.863Z,97073.19
2023-04-25T12:15:25.741Z,97079.47
2023-04-25T12:18:29.213Z,97076.47
2023-04-25T12:21:35.362Z,97070.34
2023-04-25T12:24:41.776Z,97065.38
2023-04-25T12:27:45.364Z,97060.22
2023-04-25T12:31:05.871Z,97060.56
2023-04-25T12:34:09.434Z,97045.09
2023-04-25T12:37:12.841Z,97033.59
2023-04-25T12:40:15.746Z,97024.66
2023-04-25T12:43:19.357Z,97023.16
2023-04-25T12:46:22.204Z,97025.59
2023-04-25T12:49:24.985Z,97025.97
2023-04-25T12:52:28.200Z,97033.47
2023-04-25T12:55:31.042Z,97018.69
2023-04-25T12:58:36.932Z,97024.38
2023-04-25T13:01:39.985Z,97020.72
2023-04-25T13:04:43.174Z,97022.78
2023-04-25T13:07:46.903Z,97019.53
2023-04-25T13:10:49.846Z,97016.22
2023-04-25T13:13:53.274Z,97030.03
2023-04-25T13:16:56.558Z,97028.25
2023-04-25T13:19:59.587Z,97022.34
2023-04-25T13:23:02.819Z,97027.16
2023-04-25T13:26:09.158Z,97030.34
2023-04-25T13:29:12.071Z,97024.19
2023-04-25T13:32:14.910Z,97029.75
2023-04-25T13:35:18.564Z,97027.56
2023-04-25T13:38:22.994Z,97037.38
2023-04-25T13:41:25.981Z,97040.25
2023-04-25T13:44:28.976Z,97037.84
2023-04-25T13:47:32.448Z,97036.19
2023-04-25T13:50:35.186Z,97036.81
2023-04-25T13:53:38.358Z,97038.22
2023-04-25T13:56:43.670Z,97033.31
2023-04-25T13:59:49.511Z,97037.25
2023-04-25T14:02:53.420Z,97041.41
2023-04-25T14:05:56.620Z,97037.81
2023-04-25T14:09:02.252Z,97042.06
2023-04-25T14:12:05.187Z,97055.25
2023-04-25T14:15:08.619Z,97051.06
2023-04-25T14:18:11.483Z,97047.84
2023-04-25T14:21:14.465Z,97050.53
2023-04-25T14:24:17.329Z,97054.53
2023-04-25T14:27:20.248Z,97062.53
2023-04-25T14:30:23.389Z,97055.13
2023-04-25T14:33:26.441Z,97054.03
2023-04-25T14:36:33.204Z,97053.38
2023-04-25T14:39:36.313Z,97055.47
2023-04-25T14:42:39.166Z,97041.41
2023-04-25T14:45:42.416Z,97040.81
2023-04-25T14:48:45.386Z,97043.53
2023-04-25T14:51:50.155Z,97048.78
2023-04-25T14:54:54.454Z,97054.47
2023-04-25T14:57:57.746Z,97056.31
2023-04-25T15:01:01.418Z,97053.16
2023-04-25T15:04:04.957Z,97060.09
2023-04-25T15:07:07.863Z,97057.47
2023-04-25T15:10:17.914Z,97054.75
2023-04-25T15:13:20.838Z,97050.25
2023-04-25T15:16:23.723Z,97059.28
2023-04-25T15:19:26.515Z,97055.25
2023-04-25T15:22:29.562Z,97057.25
2023-04-25T15:25:32.565Z,97057.28
2023-04-25T15:28:35.327Z,97058.50
2023-04-25T15:31:38.219Z,97057.69
2023-04-25T15:34:41.129Z,97055.97
2023-04-25T15:37:44.141Z,97068.13
2023-04-25T15:40:46.948Z,97063.88
2023-04-25T15:43:50.110Z,97055.09
2023-04-25T15:46:55.077Z,97057.13
2023-04-25T15:49:58.293Z,97056.47
2023-04-25T15:53:01.170Z,97056.34
2023-04-25T15:56:04.965Z,97051.38
2023-04-25T15:59:08.280Z,97045.66
2023-04-25T16:02:11.115Z,97060.38
2023-04-25T16:05:15.869Z,97073.16
2023-04-25T16:08:18.859Z,97078.75
2023-04-25T16:11:22.237Z,97065.59
2023-04-25T16:14:25.246Z,97072.25
2023-04-25T16:17:30.934Z,97076.28
2023-04-25T16:20:33.837Z,97072.16
2023-04-25T16:23:36.844Z,97076.84
2023-04-25T16:26:41.185Z,97071.94
2023-04-25T16:29:44.140Z,97075.22
2023-04-25T16:32:47.155Z,97087.84
2023-04-25T16:35:51.250Z,97099.34
2023-04-25T16:38:54.367Z,97097.56
2023-04-25T16:41:57.532Z,97103.81
2023-04-25T16:45:01.104Z,97104.38
2023-04-25T16:48:04.076Z,97105.88
2023-04-25T16:51:06.834Z,97098.19
2023-04-25T16:54:09.641Z,97105.16
2023-04-25T16:57:14.569Z,97106.81
2023-04-25T17:00:20.909Z,97107.19
2023-04-25T17:03:24.246Z,97103.75
2023-04-25T17:06:27.501Z,97114.50
2023-04-25T17:09:31.022Z,97112.38
2023-04-25T17:12:34.082Z,97123.97
2023-04-25T17:15:37.064Z,97118.66
2023-04-25T17:18:39.812Z,97125.50
2023-04-25T17:21:43.026Z,97142.38
2023-04-25T17:24:46.189Z,97142.81
2023-04-25T17:27:49.233Z,97163.19
2023-04-25T17:30:52.140Z,97165.06
2023-04-25T17:33:54.920Z,97167.91
2023-04-25T17:36:58.014Z,97169.53
2023-04-25T17:40:01.205Z,97181.00
2023-04-25T17:43:03.964Z,97189.22
2023-04-25T17:46:07.089Z,97188.56
2023-04-25T17:49:10.152Z,97191.69
2023-04-25T17:52:13.061Z,97187.91
2023-04-25T17:55:16.120Z,97195.75
2023-04-25T17:58:19.154Z,97190.03
2023-04-25T18:01:22.215Z,97185.63
2023-04-25T18:04:25.432Z,97193.16
2023-04-25T18:07:28.251Z,97189.72
2023-04-25T18:10:31.608Z,97192.16
2023-04-25T18:13:34.408Z,97194.78
2023-04-25T18:16:37.316Z,97199.38
2023-04-25T18:19:42.741Z,97202.63
2023-04-25T18:22:46.708Z,97208.38
2023-04-25T18:25:52.409Z,97208.03
2023-04-25T18:28:55.277Z,97213.09
2023-04-25T18:32:00.814Z,97222.25
2023-04-25T18:35:04.549Z,97232.03
2023-04-25T18:38:07.901Z,97241.84
2023-04-25T18:41:33.912Z,97249.81
2023-04-25T18:44:36.905Z,97248.66
2023-04-25T18:47:40.120Z,97252.88
2023-04-25T18:50:44.582Z,97254.50
2023-04-25T18:53:47.322Z,97256.44
2023-04-25T18:56:50.123Z,97258.28
2023-04-25T18:59:52.902Z,97266.25
2023-04-25T19:02:58.357Z,97272.81
2023-04-25T19:06:01.733Z,97271.78
2023-04-25T19:09:04.701Z,97272.28
2023-04-25T19:12:07.820Z,97279.66
2023-04-25T19:15:13.056Z,97280.09
2023-04-25T19:18:16.126Z,97277.94
2023-04-25T19:21:19.121Z,97265.53
2023-04-25T19:24:21.918Z,97281.19
2023-04-25T19:27:26.969Z,97286.00
2023-04-25T19:30:30.405Z,97284.09
2023-04-25T19:33:33.454Z,97286.84
2023-04-25T19:36:38.904Z,97292.09
2023-04-25T19:39:41.952Z,97299.06
2023-04-25T19:42:45.768Z,97299.97
2023-04-25T19:45:48.791Z,97297.34
2023-04-25T19:48:52.256Z,97304.75
2023-04-25T19:51:55.496Z,97293.63
2023-04-25T19:55:02.690Z,97301.28
2023-04-25T19:58:07.218Z,97303.88
2023-04-25T20:01:10.894Z,97304.75
2023-04-25T20:04:13.893Z,97315.34
2023-04-25T20:07:16.864Z,97317.63
2023-04-25T20:10:20.309Z,97318.56
2023-04-25T20:13:23.172Z,97323.88
2023-04-25T20:16:26.488Z,97324.63
2023-04-25T20:19:29.498Z,97323.50
2023-04-25T20:22:37.420Z,97325.13
2023-04-25T20:25:40.250Z,97335.25
2023-04-25T20:28:44.920Z,97335.25
2023-04-25T20:31:50.173Z,97335.38
2023-04-25T20:34:53.121Z,97340.69
2023-04-25T20:37:56.565Z,97348.44
2023-04-25T20:40:59.949Z,97350.53
2023-04-25T20:44:03.462Z,97347.78
2023-04-25T20:47:08.869Z,97347.63
2023-04-25T20:50:12.734Z,97358.78
2023-04-25T20:53:16.047Z,97359.13
2023-04-25T20:56:19.376Z,97369.81
2023-04-25T20:59:22.479Z,97357.13
2023-04-25T21:02:25.359Z,97356.03
2023-04-25T21:05:28.321Z,97345.25
2023-04-25T21:08:31.098Z,97345.19
2023-04-25T21:11:34.131Z,97346.59
2023-04-25T21:14:37.087Z,97344.16
2023-04-25T21:17:40.598Z,97346.69
2023-04-25T21:20:43.485Z,97342.72
2023-04-25T21:23:46.440Z,97367.97
2023-04-25T21:26:49.214Z,97363.56
2023-04-25T21:29:52.169Z,97361.09
2023-04-25T21:32:55.050Z,97372.59
2023-04-25T21:35:58.031Z,97377.38
2023-04-25T21:39:00.802Z,97383.44
2023-04-25T21:42:06.768Z,97376.09
2023-04-25T21:45:10.570Z,97389.16
2023-04-25T21:48:13.794Z,97386.25
2023-04-25T21:51:18.117Z,97377.03
2023-04-25T21:54:21.089Z,97388.47
2023-04-25T21:57:23.838Z,97393.75
2023-04-25T22:00:28.078Z,97398.03
2023-04-25T22:03:32.287Z,97396.28
2023-04-25T22:06:35.074Z,97396.66
2023-04-25T22:09:47.371Z,97403.72
2023-04-25T22:12:56.987Z,97402.97
2023-04-25T22:16:00.323Z,97407.38
2023-04-25T22:19:03.187Z,97412.78
2023-04-25T22:22:06.545Z,97423.75
2023-04-25T22:25:10.331Z,97436.69
2023-04-25T22:28:13.574Z,97434.78
2023-04-25T22:31:16.799Z,97435.22
2023-04-25T22:34:19.765Z,97440.41
2023-04-25T22:37:22.575Z,97441.50
2023-04-25T22:40:25.305Z,97443.00
2023-04-25T22:43:29.586Z,97448.47
2023-04-25T22:46:33.018Z,97444.09
2023-04-25T22:49:36.100Z,97455.38
2023-04-25T22:52:38.778Z,97452.91
2023-04-25T22:55:42.024Z,97451.13
2023-04-25T22:58:45.400Z,97459.25
2023-04-25T23:01:50.218Z,97460.06
2023-04-25T23:04:53.520Z,97457.91
2023-04-25T23:07:56.543Z,97463.69
2023-04-25T23:10:59.472Z,97478.25
2023-04-25T23:14:03.060Z,97472.47
2023-04-25T23:17:08.183Z,97480.06
2023-04-25T23:20:12.299Z,97484.31
2023-04-25T23:23:15.334Z,97472.91
2023-04-25T23:26:18.386Z,97474.69
2023-04-25T23:29:23.372Z,97490.38
2023-04-25T23:32:26.850Z,97493.34
2023-04-25T23:35:35.523Z,97497.78
2023-04-25T23:38:38.386Z,97502.44
2023-04-25T23:41:41.195Z,97502.59
2023-04-25T23:44:44.150Z,97507.94
2023-04-25T23:47:47.082Z,97492.97
2023-04-25T23:50:50.024Z,97507.53
2023-04-25T23:53:52.776Z,97506.31
2023-04-25T23:56:55.381Z,97487.88
2023-04-25T23:59:58.332Z,97507.69
